createdAt,value
2023-03-11T00:00:30.457Z,0.69
2023-03-11T00:02:59.528Z,0.86
2023-03-11T00:05:29.102Z,0.83
2023-03-11T00:07:56.511Z,0.82
2023-03-11T00:10:30.347Z,0.78
2023-03-11T00:13:00.926Z,0.60
2023-03-11T00:15:28.890Z,0.68
2023-03-11T00:17:56.141Z,0.66
2023-03-11T00:20:25.165Z,0.66
2023-03-11T00:22:52.101Z,-0.84
2023-03-11T00:25:19.373Z,0.56
2023-03-11T00:27:48.243Z,0.47
2023-03-11T00:30:19.195Z,0.47
2023-03-11T00:32:48.946Z,0.43
2023-03-11T00:35:19.863Z,0.40
2023-03-11T00:37:47.926Z,-0.63
2023-03-11T00:40:17.798Z,0.33
2023-03-11T00:42:44.925Z,0.28
2023-03-11T00:45:12.319Z,0.11
2023-03-11T00:47:39.681Z,0.15
2023-03-11T00:50:09.637Z,0.02
2023-03-11T00:52:36.345Z,0.09
2023-03-11T00:55:03.141Z,0.05
2023-03-11T00:57:32.348Z,-0.14
2023-03-11T00:59:59.893Z,0.04
2023-03-11T01:02:28.768Z,0.01
2023-03-11T01:04:56.246Z,-0.03
2023-03-11T01:07:23.196Z,-0.11
2023-03-11T01:09:50.096Z,-0.20
2023-03-11T01:12:19.128Z,-0.15
2023-03-11T01:14:45.796Z,-0.21
2023-03-11T01:17:12.374Z,-0.19
2023-03-11T01:19:39.129Z,-0.23
2023-03-11T01:22:05.902Z,-0.22
2023-03-11T01:24:32.806Z,-0.22
2023-03-11T01:26:59.609Z,-0.58
2023-03-11T01:29:26.324Z,-0.24
2023-03-11T01:31:53.062Z,-0.30
2023-03-11T01:34:19.805Z,-0.28
2023-03-11T01:36:46.555Z,-0.53
2023-03-11T01:39:13.207Z,-0.57
2023-03-11T01:41:42.533Z,-0.46
2023-03-11T01:44:12.381Z,-0.36
2023-03-11T01:46:54.515Z,-0.41
2023-03-11T01:49:22.476Z,-0.41
2023-03-11T01:51:53.029Z,-0.44
2023-03-11T01:54:31.032Z,-0.47
2023-03-11T01:56:59.593Z,-0.50
2023-03-11T01:59:33.975Z,-0.71
2023-03-11T02:02:13.002Z,-0.55
2023-03-11T02:04:40.948Z,-0.68
2023-03-11T02:07:09.603Z,-0.82
2023-03-11T02:09:36.257Z,-0.87
2023-03-11T02:12:07.713Z,-0.77
2023-03-11T02:14:36.004Z,-0.89
2023-03-11T02:17:03.561Z,-0.72
2023-03-11T02:19:45.320Z,-0.75
2023-03-11T02:22:13.709Z,-0.80
2023-03-11T02:24:55.581Z,-0.80
2023-03-11T02:27:23.729Z,-0.82
2023-03-11T02:29:54.255Z,-0.84
2023-03-11T02:32:21.810Z,-0.86
2023-03-11T02:34:48.700Z,-1.08
2023-03-11T02:37:17.831Z,-0.98
2023-03-11T02:39:47.966Z,-0.98
2023-03-11T02:42:32.427Z,-0.93
2023-03-11T02:45:04.498Z,-1.11
2023-03-11T02:47:35.097Z,-0.93
2023-03-11T02:50:01.921Z,-0.94
2023-03-11T02:52:36.171Z,-1.20
2023-03-11T02:55:03.626Z,-0.99
2023-03-11T02:57:30.340Z,-1.00
2023-03-11T02:59:57.250Z,-0.98
2023-03-11T03:02:26.188Z,-0.98
2023-03-11T03:04:52.922Z,-0.99
2023-03-11T03:07:19.517Z,-0.99
2023-03-11T03:09:46.138Z,-1.03
2023-03-11T03:12:12.757Z,-1.03
2023-03-11T03:14:39.641Z,-1.06
2023-03-11T03:17:06.658Z,-1.46
2023-03-11T03:19:33.353Z,-0.99
2023-03-11T03:21:59.990Z,-1.14
2023-03-11T03:24:26.808Z,-0.98
2023-03-11T03:26:53.495Z,-0.95
2023-03-11T03:29:22.513Z,-1.30
2023-03-11T03:31:49.391Z,-0.99
2023-03-11T03:34:16.073Z,-1.07
2023-03-11T03:36:45.259Z,-0.90
2023-03-11T03:39:12.056Z,-0.90
2023-03-11T03:41:40.914Z,-0.93
2023-03-11T03:44:07.601Z,-0.93
2023-03-11T03:46:34.295Z,-0.91
2023-03-11T03:49:00.980Z,-0.96
2023-03-11T03:51:27.729Z,-0.96
2023-03-11T03:53:56.883Z,-1.04
2023-03-11T03:56:23.531Z,-1.05
2023-03-11T03:58:50.072Z,-1.15
2023-03-11T04:01:17.032Z,-1.22
2023-03-11T04:03:43.998Z,-1.39
2023-03-11T04:06:17.862Z,-1.21
2023-03-11T04:08:47.370Z,-1.27
2023-03-11T04:11:14.471Z,-1.29
2023-03-11T04:13:48.232Z,-1.48
2023-03-11T04:16:20.993Z,-1.50
2023-03-11T04:18:48.232Z,-1.68
2023-03-11T04:21:14.980Z,-1.43
2023-03-11T04:23:41.670Z,-1.44
2023-03-11T04:26:08.406Z,-1.57
2023-03-11T04:28:35.008Z,-1.52
2023-03-11T04:31:02.049Z,-1.61
2023-03-11T04:33:31.647Z,-1.49
2023-03-11T04:36:05.415Z,-1.57
2023-03-11T04:38:32.237Z,-1.50
2023-03-11T04:41:03.069Z,-1.58
2023-03-11T04:43:30.223Z,-2.11
2023-03-11T04:45:57.035Z,-1.75
2023-03-11T04:48:24.883Z,-1.55
2023-03-11T04:50:51.765Z,-1.53
2023-03-11T04:53:18.450Z,-1.54
2023-03-11T04:55:45.492Z,-1.64
2023-03-11T04:58:14.557Z,-1.58
2023-03-11T05:00:41.462Z,-1.61
2023-03-11T05:03:10.713Z,-1.62
2023-03-11T05:05:37.606Z,-1.61
2023-03-11T05:08:04.608Z,-1.87
2023-03-11T05:10:33.784Z,-1.66
2023-03-11T05:13:00.487Z,-1.67
2023-03-11T05:15:27.245Z,-1.70
2023-03-11T05:17:57.218Z,-1.76
2023-03-11T05:20:23.905Z,-1.79
2023-03-11T05:22:52.783Z,-3.20
2023-03-11T05:25:19.448Z,-1.84
2023-03-11T05:27:46.255Z,-1.94
2023-03-11T05:30:16.149Z,-2.00
2023-03-11T05:32:43.261Z,-2.95
2023-03-11T05:35:10.272Z,-2.18
2023-03-11T05:37:39.347Z,-1.90
2023-03-11T05:40:11.291Z,-1.92
2023-03-11T05:42:41.846Z,-2.10
2023-03-11T05:45:09.301Z,-1.97
2023-03-11T05:47:42.375Z,-2.05
2023-03-11T05:50:11.520Z,-2.15
2023-03-11T05:52:40.509Z,-2.03
2023-03-11T05:55:10.037Z,-2.22
2023-03-11T05:57:39.281Z,-2.09
2023-03-11T06:00:12.198Z,-2.12
2023-03-11T06:02:41.092Z,-2.02
2023-03-11T06:05:10.468Z,-2.26
2023-03-11T06:07:41.212Z,-2.16
2023-03-11T06:10:08.357Z,-2.02
2023-03-11T06:12:35.472Z,-2.00
2023-03-11T06:15:02.268Z,-2.15
2023-03-11T06:17:34.936Z,-2.00
2023-03-11T06:20:01.793Z,-2.19
2023-03-11T06:22:30.954Z,-1.96
2023-03-11T06:24:57.701Z,-2.09
2023-03-11T06:27:25.013Z,-2.06
2023-03-11T06:29:54.940Z,-1.90
2023-03-11T06:32:21.777Z,-1.95
2023-03-11T06:34:53.237Z,-1.85
2023-03-11T06:37:21.342Z,-1.95
2023-03-11T06:39:48.094Z,-1.76
2023-03-11T06:42:15.027Z,-1.94
2023-03-11T06:44:41.779Z,-1.73
2023-03-11T06:47:08.481Z,-1.94
2023-03-11T06:49:35.374Z,-2.09
2023-03-11T06:52:02.025Z,-1.68
2023-03-11T06:54:31.085Z,-1.82
2023-03-11T06:57:00.172Z,-1.48
2023-03-11T06:59:28.379Z,-1.62
2023-03-11T07:01:55.735Z,-1.40
2023-03-11T07:04:22.536Z,-1.52
2023-03-11T07:06:51.549Z,-1.57
2023-03-11T07:09:18.325Z,-1.36
2023-03-11T07:11:45.092Z,-1.32
2023-03-11T07:14:11.835Z,-1.33
2023-03-11T07:16:39.368Z,-1.22
2023-03-11T07:19:09.824Z,-1.22
2023-03-11T07:21:36.770Z,-1.12
2023-03-11T07:24:04.697Z,-1.10
2023-03-11T07:26:33.486Z,-1.06
2023-03-11T07:29:00.537Z,-1.04
2023-03-11T07:31:30.577Z,-1.17
2023-03-11T07:33:59.689Z,-1.07
2023-03-11T07:36:27.227Z,-1.04
2023-03-11T07:39:04.521Z,-0.87
2023-03-11T07:41:35.739Z,-0.80
2023-03-11T07:44:03.733Z,-0.75
2023-03-11T07:46:31.322Z,-0.70
2023-03-11T07:48:58.284Z,-0.84
2023-03-11T07:51:30.170Z,-2.09
2023-03-11T07:54:00.155Z,-0.58
2023-03-11T07:56:29.885Z,-0.53
2023-03-11T07:58:58.530Z,-0.45
2023-03-11T08:01:27.407Z,-0.40
2023-03-11T08:03:58.974Z,-0.30
2023-03-11T08:06:32.260Z,-0.35
2023-03-11T08:09:04.568Z,-0.17
2023-03-11T08:11:32.340Z,-0.09
2023-03-11T08:14:01.999Z,-0.02
2023-03-11T08:16:28.676Z,0.00
2023-03-11T08:18:55.788Z,0.03
2023-03-11T08:21:25.720Z,0.35
2023-03-11T08:23:52.630Z,0.52
2023-03-11T08:26:24.522Z,0.68
2023-03-11T08:28:51.287Z,0.96
2023-03-11T08:31:26.437Z,1.13
2023-03-11T08:33:57.495Z,1.30
2023-03-11T08:36:27.008Z,1.31
2023-03-11T08:38:56.075Z,1.57
2023-03-11T08:41:22.652Z,1.95
2023-03-11T08:43:52.277Z,3.74
2023-03-11T08:46:24.812Z,5.78
2023-03-11T08:48:51.978Z,7.37
2023-03-11T08:51:19.166Z,8.59
2023-03-11T08:53:48.421Z,9.42
2023-03-11T08:56:15.024Z,9.96
2023-03-11T08:58:41.602Z,9.93
2023-03-11T09:01:09.399Z,10.06
2023-03-11T09:03:36.846Z,10.12
2023-03-11T09:06:09.837Z,10.37
2023-03-11T09:08:36.824Z,9.99
2023-03-11T09:11:03.480Z,10.57
2023-03-11T09:13:30.150Z,10.50
2023-03-11T09:16:01.729Z,9.74
2023-03-11T09:18:29.346Z,9.55
2023-03-11T09:20:58.460Z,9.09
2023-03-11T09:23:27.358Z,8.87
2023-03-11T09:25:54.048Z,9.03
2023-03-11T09:28:23.685Z,8.85
2023-03-11T09:30:50.278Z,8.92
2023-03-11T09:33:19.390Z,8.94
2023-03-11T09:35:48.744Z,8.40
2023-03-11T09:38:15.652Z,7.68
2023-03-11T09:40:49.187Z,7.38
2023-03-11T09:43:33.978Z,7.15
2023-03-11T09:46:26.310Z,6.99
2023-03-11T09:49:23.296Z,6.82
2023-03-11T09:52:09.079Z,6.72
2023-03-11T09:54:40.706Z,6.70
2023-03-11T09:57:12.744Z,6.78
2023-03-11T09:59:42.768Z,6.89
2023-03-11T10:02:15.757Z,6.84
2023-03-11T10:04:51.886Z,6.80
2023-03-11T10:07:23.741Z,6.73
2023-03-11T10:09:57.996Z,6.48
2023-03-11T10:12:30.500Z,6.08
2023-03-11T10:15:19.024Z,5.90
2023-03-11T10:18:17.297Z,5.91
2023-03-11T10:21:17.253Z,5.91
2023-03-11T10:24:01.663Z,5.90
2023-03-11T10:26:41.668Z,5.92
2023-03-11T10:29:36.972Z,5.88
2023-03-11T10:32:17.817Z,5.70
2023-03-11T10:34:51.981Z,5.78
2023-03-11T10:37:38.867Z,5.82
2023-03-11T10:40:23.779Z,5.97
2023-03-11T10:42:51.966Z,6.12
2023-03-11T10:45:23.556Z,6.56
2023-03-11T10:47:50.423Z,6.62
2023-03-11T10:50:19.387Z,6.42
2023-03-11T10:53:04.503Z,6.42
2023-03-11T10:55:31.163Z,6.49
2023-03-11T10:58:18.623Z,6.38
2023-03-11T11:00:45.586Z,6.98
2023-03-11T11:03:41.449Z,7.19
2023-03-11T11:06:18.957Z,7.06
2023-03-11T11:08:46.883Z,7.23
2023-03-11T11:11:31.977Z,7.22
2023-03-11T11:14:00.446Z,7.41
2023-03-11T11:16:28.690Z,7.37
2023-03-11T11:19:15.312Z,7.60
2023-03-11T11:21:52.811Z,7.62
2023-03-11T11:24:27.192Z,7.57
2023-03-11T11:27:06.803Z,7.51
2023-03-11T11:29:34.776Z,7.65
2023-03-11T11:32:24.435Z,7.72
2023-03-11T11:35:05.241Z,7.74
2023-03-11T11:37:37.803Z,7.66
2023-03-11T11:40:22.057Z,7.72
2023-03-11T11:43:04.837Z,7.95
2023-03-11T11:46:05.940Z,7.86
2023-03-11T11:48:46.037Z,8.11
2023-03-11T11:51:30.657Z,7.97
2023-03-11T11:54:01.950Z,7.91
2023-03-11T11:56:28.919Z,7.93
2023-03-11T11:58:55.698Z,7.99
2023-03-11T12:01:22.294Z,8.10
2023-03-11T12:04:23.713Z,8.00
2023-03-11T12:07:22.398Z,7.77
2023-03-11T12:09:57.988Z,7.67
2023-03-11T12:12:42.170Z,7.51
2023-03-11T12:15:16.720Z,7.59
2023-03-11T12:17:47.611Z,7.49
2023-03-11T12:20:42.192Z,7.86
2023-03-11T12:23:36.907Z,7.82
2023-03-11T12:26:22.221Z,7.58
2023-03-11T12:29:15.954Z,7.84
2023-03-11T12:31:44.429Z,7.75
2023-03-11T12:34:19.386Z,7.85
2023-03-11T12:36:48.220Z,7.49
2023-03-11T12:39:35.072Z,7.59
2023-03-11T12:42:22.503Z,8.13
2023-03-11T12:44:50.294Z,8.29
2023-03-11T12:47:22.366Z,8.30
2023-03-11T12:49:55.111Z,8.40
2023-03-11T12:52:27.619Z,8.69
2023-03-11T12:54:57.154Z,8.70
2023-03-11T12:57:37.071Z,8.59
2023-03-11T13:00:42.111Z,8.85
2023-03-11T13:03:46.794Z,8.59
2023-03-11T13:06:48.891Z,8.75
2023-03-11T13:09:19.452Z,8.84
2023-03-11T13:11:47.718Z,8.76
2023-03-11T13:14:33.781Z,8.91
2023-03-11T13:17:25.985Z,8.94
2023-03-11T13:19:55.197Z,8.94
2023-03-11T13:22:43.650Z,9.07
2023-03-11T13:25:39.718Z,8.79
2023-03-11T13:28:28.160Z,9.00
2023-03-11T13:31:19.856Z,8.93
2023-03-11T13:33:58.056Z,8.93
2023-03-11T13:36:24.852Z,8.91
2023-03-11T13:39:16.378Z,8.80
2023-03-11T13:41:45.257Z,8.56
2023-03-11T13:44:22.428Z,8.74
2023-03-11T13:46:53.019Z,8.72
2023-03-11T13:49:37.324Z,8.63
2023-03-11T13:52:09.175Z,8.67
2023-03-11T13:54:55.127Z,8.58
2023-03-11T13:57:32.541Z,8.58
2023-03-11T14:00:16.107Z,8.66
2023-03-11T14:02:51.208Z,8.15
2023-03-11T14:05:25.454Z,8.53
2023-03-11T14:07:52.127Z,8.58
2023-03-11T14:10:28.730Z,8.58
2023-03-11T14:13:16.776Z,8.54
2023-03-11T14:15:53.760Z,8.49
2023-03-11T14:18:41.652Z,8.67
2023-03-11T14:21:15.021Z,8.40
2023-03-11T14:23:45.279Z,8.76
2023-03-11T14:26:21.635Z,8.80
2023-03-11T14:28:51.331Z,8.76
2023-03-11T14:31:34.682Z,8.60
2023-03-11T14:34:25.944Z,8.27
2023-03-11T14:36:58.919Z,8.53
2023-03-11T14:39:31.893Z,8.50
2023-03-11T14:42:12.337Z,8.56
2023-03-11T14:44:43.743Z,8.64
2023-03-11T14:47:22.436Z,8.67
2023-03-11T14:49:50.777Z,8.72
2023-03-11T14:52:59.497Z,8.74
2023-03-11T14:55:36.433Z,8.61
2023-03-11T14:58:08.607Z,8.68
2023-03-11T15:00:40.358Z,8.65
2023-03-11T15:03:17.879Z,8.20
2023-03-11T15:05:49.568Z,8.66
2023-03-11T15:08:19.830Z,8.70
2023-03-11T15:11:07.617Z,8.74
2023-03-11T15:13:35.835Z,8.76
2023-03-11T15:16:07.331Z,8.55
2023-03-11T15:18:37.787Z,8.80
2023-03-11T15:21:06.339Z,7.96
2023-03-11T15:23:37.449Z,8.67
2023-03-11T15:26:05.139Z,8.64
2023-03-11T15:28:34.027Z,8.62
2023-03-11T15:31:17.624Z,8.56
2023-03-11T15:33:44.688Z,8.56
2023-03-11T15:36:35.893Z,8.63
2023-03-11T15:39:20.715Z,8.58
2023-03-11T15:42:01.126Z,8.39
2023-03-11T15:44:32.221Z,8.46
2023-03-11T15:47:01.347Z,8.28
2023-03-11T15:49:29.234Z,8.29
2023-03-11T15:52:02.524Z,8.30
2023-03-11T15:54:29.902Z,8.31
2023-03-11T15:56:58.426Z,8.30
2023-03-11T15:59:25.729Z,8.28
2023-03-11T16:01:52.315Z,8.23
2023-03-11T16:04:20.531Z,8.06
2023-03-11T16:07:02.947Z,8.04
2023-03-11T16:09:38.310Z,7.86
2023-03-11T16:12:23.035Z,7.83
2023-03-11T16:14:52.080Z,7.81
2023-03-11T16:17:19.353Z,7.61
2023-03-11T16:19:49.196Z,7.18
2023-03-11T16:22:31.150Z,7.48
2023-03-11T16:24:59.776Z,7.55
2023-03-11T16:27:28.681Z,7.47
2023-03-11T16:29:55.288Z,7.35
2023-03-11T16:32:23.051Z,7.19
2023-03-11T16:34:49.621Z,7.03
2023-03-11T16:37:20.726Z,6.78
2023-03-11T16:39:48.633Z,6.78
2023-03-11T16:42:23.198Z,6.65
2023-03-11T16:44:50.266Z,6.55
2023-03-11T16:47:17.332Z,6.43
2023-03-11T16:49:44.048Z,6.30
2023-03-11T16:52:10.757Z,6.11
2023-03-11T16:54:37.330Z,6.04
2023-03-11T16:57:04.041Z,6.03
2023-03-11T16:59:30.599Z,5.96
2023-03-11T17:01:59.686Z,5.90
2023-03-11T17:04:26.247Z,4.65
2023-03-11T17:06:52.805Z,5.71
2023-03-11T17:09:20.595Z,5.68
2023-03-11T17:11:49.943Z,5.51
2023-03-11T17:14:19.435Z,5.57
2023-03-11T17:16:46.068Z,5.26
2023-03-11T17:19:13.504Z,5.47
2023-03-11T17:21:40.138Z,5.31
2023-03-11T17:24:07.306Z,5.18
2023-03-11T17:26:34.100Z,5.30
2023-03-11T17:29:05.738Z,5.26
2023-03-11T17:31:32.339Z,5.18
2023-03-11T17:34:04.214Z,4.91
2023-03-11T17:36:31.276Z,4.99
2023-03-11T17:38:57.956Z,4.95
2023-03-11T17:41:24.552Z,4.92
2023-03-11T17:43:51.695Z,4.87
2023-03-11T17:46:19.908Z,4.54
2023-03-11T17:48:48.389Z,4.80
2023-03-11T17:51:19.884Z,4.73
2023-03-11T17:53:48.458Z,4.66
2023-03-11T17:56:17.573Z,4.60
2023-03-11T17:58:44.640Z,4.31
2023-03-11T18:01:17.268Z,4.38
2023-03-11T18:03:44.109Z,4.39
2023-03-11T18:06:11.198Z,4.37
2023-03-11T18:08:37.758Z,4.36
2023-03-11T18:11:07.352Z,4.31
2023-03-11T18:13:34.579Z,4.27
2023-03-11T18:16:04.364Z,4.37
2023-03-11T18:18:31.957Z,4.49
2023-03-11T18:21:13.623Z,3.02
2023-03-11T18:23:40.939Z,4.21
2023-03-11T18:26:08.956Z,4.11
2023-03-11T18:28:36.066Z,4.09
2023-03-11T18:31:07.863Z,3.97
2023-03-11T18:33:35.128Z,3.89
2023-03-11T18:36:12.168Z,3.92
2023-03-11T18:38:38.926Z,3.80
2023-03-11T18:41:07.802Z,3.62
2023-03-11T18:43:34.758Z,3.06
2023-03-11T18:46:02.297Z,3.44
2023-03-11T18:48:33.809Z,3.56
2023-03-11T18:51:00.360Z,3.53
2023-03-11T18:53:27.281Z,3.44
2023-03-11T18:56:03.115Z,3.40
2023-03-11T18:58:35.082Z,3.25
2023-03-11T19:01:19.371Z,3.22
2023-03-11T19:03:51.083Z,3.27
2023-03-11T19:06:21.336Z,3.24
2023-03-11T19:08:50.952Z,3.19
2023-03-11T19:11:20.601Z,3.05
2023-03-11T19:13:48.050Z,3.18
2023-03-11T19:16:17.871Z,3.13
2023-03-11T19:18:45.032Z,3.44
2023-03-11T19:21:13.298Z,3.20
2023-03-11T19:23:40.480Z,3.21
2023-03-11T19:26:07.869Z,3.03
2023-03-11T19:28:34.599Z,2.96
2023-03-11T19:31:01.935Z,2.53
2023-03-11T19:33:28.765Z,2.83
2023-03-11T19:36:06.431Z,2.91
2023-03-11T19:38:33.776Z,2.85
2023-03-11T19:41:08.032Z,2.81
2023-03-11T19:43:35.943Z,2.71
2023-03-11T19:46:09.356Z,2.66
2023-03-11T19:48:38.671Z,2.76
2023-03-11T19:51:08.099Z,2.54
2023-03-11T19:53:37.886Z,3.22
2023-03-11T19:56:08.776Z,2.82
2023-03-11T19:58:36.120Z,2.80
2023-03-11T20:01:02.790Z,2.72
2023-03-11T20:03:32.023Z,2.66
2023-03-11T20:06:05.353Z,2.61
2023-03-11T20:08:36.651Z,2.45
2023-03-11T20:11:07.214Z,2.55
2023-03-11T20:13:38.209Z,2.52
2023-03-11T20:16:10.415Z,2.36
2023-03-11T20:18:37.410Z,2.45
2023-03-11T20:21:05.951Z,2.33
2023-03-11T20:23:32.956Z,2.45
2023-03-11T20:25:59.568Z,2.37
2023-03-11T20:28:26.292Z,2.36
2023-03-11T20:30:55.793Z,2.41
2023-03-11T20:33:22.444Z,2.41
2023-03-11T20:35:49.090Z,2.32
2023-03-11T20:38:15.882Z,2.33
2023-03-11T20:40:42.533Z,2.17
2023-03-11T20:43:09.179Z,2.30
2023-03-11T20:45:40.754Z,2.30
2023-03-11T20:48:07.598Z,2.14
2023-03-11T20:50:34.403Z,2.61
2023-03-11T20:53:01.169Z,2.24
2023-03-11T20:55:28.085Z,2.31
2023-03-11T20:57:55.060Z,2.28
2023-03-11T21:00:22.018Z,2.27
2023-03-11T21:02:51.259Z,2.09
2023-03-11T21:05:18.142Z,1.75
2023-03-11T21:07:44.916Z,2.16
2023-03-11T21:10:12.750Z,2.00
2023-03-11T21:12:42.425Z,2.00
2023-03-11T21:15:10.256Z,2.01
2023-03-11T21:17:37.433Z,2.04
2023-03-11T21:20:06.421Z,2.07
2023-03-11T21:22:33.781Z,2.08
2023-03-11T21:25:00.627Z,2.06
2023-03-11T21:27:27.657Z,2.09
2023-03-11T21:30:00.060Z,2.14
2023-03-11T21:32:28.666Z,2.11
2023-03-11T21:34:59.638Z,2.19
2023-03-11T21:37:27.567Z,2.21
2023-03-11T21:39:54.631Z,1.73
2023-03-11T21:42:21.871Z,2.31
2023-03-11T21:44:48.879Z,2.64
2023-03-11T21:47:15.632Z,2.50
2023-03-11T21:49:42.298Z,2.93
2023-03-11T21:52:11.076Z,2.74
2023-03-11T21:54:37.856Z,2.65
2023-03-11T21:57:06.884Z,2.66
2023-03-11T21:59:33.721Z,2.70
2023-03-11T22:02:03.348Z,2.64
2023-03-11T22:04:31.585Z,2.61
2023-03-11T22:06:58.551Z,2.60
2023-03-11T22:09:26.289Z,2.61
2023-03-11T22:11:53.499Z,2.70
2023-03-11T22:14:20.391Z,2.70
2023-03-11T22:16:49.573Z,2.71
2023-03-11T22:19:16.583Z,2.72
2023-03-11T22:21:45.877Z,2.72
2023-03-11T22:24:12.534Z,2.73
2023-03-11T22:26:39.164Z,2.74
2023-03-11T22:29:08.548Z,2.76
2023-03-11T22:31:35.728Z,2.76
2023-03-11T22:34:02.478Z,2.76
2023-03-11T22:36:32.136Z,2.73
2023-03-11T22:38:58.884Z,2.71
2023-03-11T22:41:25.541Z,2.66
2023-03-11T22:43:54.467Z,2.79
2023-03-11T22:46:21.136Z,2.79
2023-03-11T22:48:48.368Z,2.76
2023-03-11T22:51:15.051Z,2.82
2023-03-11T22:53:41.810Z,2.81
2023-03-11T22:56:11.485Z,2.74
2023-03-11T22:58:40.632Z,2.67
2023-03-11T23:01:08.024Z,2.83
2023-03-11T23:03:38.034Z,2.85
2023-03-11T23:06:10.874Z,2.85
2023-03-11T23:08:40.187Z,2.68
2023-03-11T23:11:14.520Z,2.86
2023-03-11T23:13:42.527Z,2.87
2023-03-11T23:16:21.704Z,2.84
2023-03-11T23:18:51.187Z,2.29
2023-03-11T23:21:30.901Z,2.82
2023-03-11T23:24:00.014Z,2.82
2023-03-11T23:26:27.526Z,2.68
2023-03-11T23:28:54.406Z,2.83
2023-03-11T23:31:25.946Z,2.89
2023-03-11T23:33:55.372Z,2.91
2023-03-11T23:36:23.749Z,2.71
2023-03-11T23:38:51.043Z,2.91
2023-03-11T23:41:19.646Z,2.91
2023-03-11T23:43:46.440Z,2.79
2023-03-11T23:46:13.962Z,2.72
2023-03-11T23:48:41.130Z,2.91
2023-03-11T23:51:11.078Z,2.87
2023-03-11T23:53:38.460Z,2.31
2023-03-11T23:56:10.976Z,2.81
2023-03-11T23:58:37.568Z,2.91
